KFTK

Godman AAF Airport

Fort Knox, Kentucky, USA
TAF AMD KFTK 221910Z 2219/2323 29012KT 8000 -SHRA FEW010 BKN020 OVC050 QNH2971INS TEMPO 2219/2220 04015G25KT 4800 -TSRA FEW005 OVC010CB BECMG 2302/2303 34009KT 9999 NSW BKN015 OVC050 QNH2980INS BECMG 2305/2306 01006KT 6000 BR OVC008 QNH2983INS BECMG 2315/2316 01009KT 9999 NSW FEW030 SCT060 QNH2988INS TX24/2221Z TN18/2309Z
Issued Valid From Valid To
Jul-22 @ 19:10 UTC
(an hour ago)
Jul-22 @ 19:00 UTC
(an hour ago)
Jul-23 @ 23:00 UTC
(-1 days ago)
Jul-22 @ 19:00 to Jul-23 @ 02:00
TAF AMD KFTK 221910Z 2219/2323 29012KT 8000 -SHRA FEW010 BKN020 OVC050 QNH2971INS
Wind Visibility Clouds Conditions Readings
290° at 12 knots 41/97 miles
  • Few at 1,000' AGL
  • Broken at 2,000' AGL
  • Overcast at 5,000' AGL
  • Light Rain
Altimeter 29.7" Hg
Pressure 1006 hPa
Expired Click to View Jul-22 @ 19:00 to Jul-22 @ 20:00
TEMPO 2219/2220 04015G25KT 4800 -TSRA FEW005 OVC010CB
Wind Visibility Clouds Conditions
40° at 15 knots
 Gusting to 25 knots
21/98 miles
  • Few at 500' AGL
  • Overcast at 1,000' AGL
  • Light Thunderstorm
  • Light Rain
Becoming Jul-23 @ 02:00 to Jul-23 @ 05:00
BECMG 2302/2303 34009KT 9999 NSW BKN015 OVC050 QNH2980INS
Wind Visibility Clouds Conditions Readings
340° at 9 knots Greater than 6 miles
  • Broken at 1,500' AGL
  • Overcast at 5,000' AGL
Altimeter 29.79" Hg
Pressure 1009 hPa
Becoming Jul-23 @ 05:00 to Jul-23 @ 15:00
BECMG 2305/2306 01006KT 6000 BR OVC008 QNH2983INS
Wind Visibility Clouds Conditions Readings
10° at 6 knots 31/73 miles
  • Overcast at 800' AGL
  • Mist
Altimeter 29.82" Hg
Pressure 1010 hPa
Becoming Jul-23 @ 15:00 to Jul-23 @ 23:00
BECMG 2315/2316 01009KT 9999 NSW FEW030 SCT060 QNH2988INS TX24/2221Z TN18/2309Z
Wind Visibility Clouds Conditions Readings
10° at 9 knots Greater than 6 miles
  • Few at 3,000' AGL
  • Scattered at 6,000' AGL
Altimeter 29.88" Hg
Pressure 1012 hPa
TAF AMD KFTK 221910Z 2219/2323 29012KT 8000 -SHRA FEW010 BKN020 OVC050 QNH2971INS TEMPO 2219/2220 04015G25KT 4800 -TSRA FEW005 OVC010CB BECMG 2302/2303 34009KT 9999 NSW BKN015 OVC050 QNH2980INS BECMG 2305/2306 01006KT 6000 BR OVC008 QNH2983INS BECMG 2315/2316 01009KT 9999 NSW FEW030 SCT060 QNH2988INS TX24/2221Z TN18/2309Z
Issued Jul-22 @ 19:10 UTC
(an hour ago)
Valid From Jul-22 @ 19:00 UTC
(an hour ago)
Valid To Jul-23 @ 23:00 UTC
(-1 days ago)
Jul-22 @ 19:00 - Jul-23 @ 02:00
Wind Visibility
290° at 12 knots 41/97 miles
Clouds
  • Few at 1,000' AGL
  • Broken at 2,000' AGL
  • Overcast at 5,000' AGL
Conditions
  • Light Rain
Jul-22 @ 19:00 - Jul-22 @ 20:00
Wind Visibility
40° at 15 knots
 Gusting to 25 knots
21/98 miles
Clouds
  • Few at 500' AGL
  • Overcast at 1,000' AGL
Conditions
  • Light Thunderstorm
  • Light Rain
Becoming Jul-23 @ 02:00 - Jul-23 @ 05:00
Wind Visibility
340° at 9 knots Greater than 6 miles
Clouds
  • Broken at 1,500' AGL
  • Overcast at 5,000' AGL
Conditions
Becoming Jul-23 @ 05:00 - Jul-23 @ 15:00
Wind Visibility
10° at 6 knots 31/73 miles
Clouds
  • Overcast at 800' AGL
Conditions
  • Mist
Becoming Jul-23 @ 15:00 - Jul-23 @ 23:00
Wind Visibility
10° at 9 knots Greater than 6 miles
Clouds
  • Few at 3,000' AGL
  • Scattered at 6,000' AGL
Conditions